SWR239N LFKJ-LSGG
Flight info
| Callsign | SWR239N |
|---|---|
| Flight time | 0h 52m |
| Altitude | 34000 |
| Route | LONSU M622 PIGOS DCT BARSO DCT IRMAR/N0393F280 DCT KINES |
| Aircraft | A320/M-SDE3FGHIRWY/LB1 |
Departure
| Time | 2026-04-23 23:20 |
|---|---|
| Airport | Ajaccio Napoléon Bonaparte airport (LFKJ) |
Arrival
| Time | 2026-04-24 00:12 |
|---|---|
| Airport | Geneva International Airport (LSGG) |
| Time | Latitude | Longitude | Altitude | Speed | Heading |
|---|---|---|---|---|---|
| 2026-04-23 23:00 | 41.91967 | 8.79573 | 27 ft | 0 kts | 344° |
| 2026-04-23 23:12 | 41.91964 | 8.79574 | 26 ft | 3 kts | 344° |
| 2026-04-23 23:12 | 41.91943 | 8.79588 | 32 ft | 4 kts | 304° |
| 2026-04-23 23:13 | 41.91932 | 8.79615 | 30 ft | 4 kts | 332° |
| 2026-04-23 23:13 | 41.91914 | 8.79615 | 31 ft | 1 kts | 25° |
| 2026-04-23 23:13 | 41.91894 | 8.79601 | 27 ft | 2 kts | 25° |
| 2026-04-23 23:13 | 41.91892 | 8.79600 | 27 ft | 0 kts | 25° |
| 2026-04-23 23:15 | 41.91907 | 8.79609 | 31 ft | 4 kts | 25° |
| 2026-04-23 23:16 | 41.91945 | 8.79634 | 27 ft | 8 kts | 25° |
| 2026-04-23 23:16 | 41.92004 | 8.79671 | 28 ft | 11 kts | 25° |
| 2026-04-23 23:16 | 41.92086 | 8.79722 | 28 ft | 15 kts | 25° |
| 2026-04-23 23:16 | 41.92187 | 8.79784 | 28 ft | 17 kts | 25° |
| 2026-04-23 23:17 | 41.92299 | 8.79854 | 29 ft | 19 kts | 25° |
| 2026-04-23 23:17 | 41.92427 | 8.79934 | 27 ft | 21 kts | 25° |
| 2026-04-23 23:17 | 41.92566 | 8.80021 | 28 ft | 23 kts | 25° |
| 2026-04-23 23:17 | 41.92700 | 8.80106 | 27 ft | 16 kts | 31° |
| 2026-04-23 23:18 | 41.92800 | 8.80189 | 28 ft | 18 kts | 38° |
| 2026-04-23 23:18 | 41.92892 | 8.80310 | 29 ft | 19 kts | 46° |
| 2026-04-23 23:18 | 41.92953 | 8.80400 | 32 ft | 11 kts | 56° |
| 2026-04-23 23:18 | 41.92955 | 8.80495 | 33 ft | 10 kts | 110° |
| 2026-04-23 23:19 | 41.92923 | 8.80564 | 33 ft | 7 kts | 154° |
| 2026-04-23 23:19 | 41.92883 | 8.80552 | 33 ft | 2 kts | 204° |
| 2026-04-23 23:19 | 41.92783 | 8.80490 | 30 ft | 48 kts | 205° |
| 2026-04-23 23:19 | 41.92225 | 8.80144 | 26 ft | 124 kts | 204° |
| 2026-04-23 23:20 | 41.91284 | 8.79553 | 241 ft | 160 kts | 205° |
| 2026-04-23 23:20 | 41.90286 | 8.78810 | 851 ft | 170 kts | 218° |
| 2026-04-23 23:20 | 41.89554 | 8.77530 | 1483 ft | 180 kts | 239° |
| 2026-04-23 23:20 | 41.88909 | 8.75973 | 1869 ft | 203 kts | 243° |
| 2026-04-23 23:21 | 41.88206 | 8.74194 | 2284 ft | 228 kts | 242° |
| 2026-04-23 23:21 | 41.87411 | 8.72218 | 2811 ft | 252 kts | 241° |
| 2026-04-23 23:21 | 41.86538 | 8.70102 | 3596 ft | 263 kts | 241° |
| 2026-04-23 23:21 | 41.85627 | 8.67938 | 4531 ft | 269 kts | 240° |
| 2026-04-23 23:22 | 41.84687 | 8.65732 | 5443 ft | 276 kts | 241° |
| 2026-04-23 23:22 | 41.84040 | 8.63293 | 6302 ft | 283 kts | 264° |
| 2026-04-23 23:22 | 41.84222 | 8.60665 | 7104 ft | 287 kts | 291° |
| 2026-04-23 23:22 | 41.85240 | 8.58389 | 7968 ft | 286 kts | 317° |
| 2026-04-23 23:23 | 41.86843 | 8.56912 | 8861 ft | 284 kts | 339° |
| 2026-04-23 23:23 | 41.88658 | 8.55844 | 9817 ft | 286 kts | 339° |
| 2026-04-23 23:23 | 41.90498 | 8.54771 | 10548 ft | 296 kts | 339° |
| 2026-04-23 23:23 | 41.92462 | 8.53628 | 10873 ft | 319 kts | 339° |
| 2026-04-23 23:24 | 41.94528 | 8.52420 | 11511 ft | 328 kts | 339° |
| 2026-04-23 23:24 | 41.96633 | 8.51178 | 12307 ft | 332 kts | 339° |
| 2026-04-23 23:24 | 41.98756 | 8.49920 | 13116 ft | 336 kts | 339° |
| 2026-04-23 23:24 | 42.00904 | 8.48642 | 13918 ft | 339 kts | 338° |
| 2026-04-23 23:25 | 42.03072 | 8.47351 | 14631 ft | 343 kts | 338° |
| 2026-04-23 23:25 | 42.05263 | 8.46046 | 15336 ft | 346 kts | 338° |
| 2026-04-23 23:25 | 42.07473 | 8.44728 | 16037 ft | 349 kts | 338° |
| 2026-04-23 23:25 | 42.09703 | 8.43399 | 16721 ft | 352 kts | 338° |
| 2026-04-23 23:26 | 42.11957 | 8.42057 | 17395 ft | 356 kts | 338° |
| 2026-04-23 23:26 | 42.14236 | 8.40697 | 18068 ft | 360 kts | 338° |
| 2026-04-23 23:26 | 42.16535 | 8.39321 | 18704 ft | 363 kts | 338° |
| 2026-04-23 23:26 | 42.18855 | 8.37934 | 19295 ft | 366 kts | 338° |
| 2026-04-23 23:27 | 42.21196 | 8.36535 | 19890 ft | 369 kts | 338° |
| 2026-04-23 23:27 | 42.23556 | 8.35124 | 20489 ft | 372 kts | 337° |
| 2026-04-23 23:27 | 42.25936 | 8.33701 | 21076 ft | 375 kts | 337° |
| 2026-04-23 23:27 | 42.28335 | 8.32266 | 21667 ft | 379 kts | 337° |
| 2026-04-23 23:28 | 42.30752 | 8.30817 | 22244 ft | 382 kts | 337° |
| 2026-04-23 23:28 | 42.33192 | 8.29355 | 22814 ft | 385 kts | 337° |
| 2026-04-23 23:28 | 42.35654 | 8.27878 | 23384 ft | 389 kts | 337° |
| 2026-04-23 23:28 | 42.38136 | 8.26388 | 23918 ft | 392 kts | 337° |
| 2026-04-23 23:29 | 42.40637 | 8.24883 | 24387 ft | 395 kts | 337° |
| 2026-04-23 23:29 | 42.43153 | 8.23366 | 24861 ft | 397 kts | 337° |
| 2026-04-23 23:29 | 42.45680 | 8.21838 | 25323 ft | 399 kts | 337° |
| 2026-04-23 23:29 | 42.48224 | 8.20299 | 25773 ft | 402 kts | 336° |
| 2026-04-23 23:30 | 42.50786 | 8.18750 | 26217 ft | 404 kts | 336° |
| 2026-04-23 23:30 | 42.53359 | 8.17193 | 26650 ft | 406 kts | 336° |
| 2026-04-23 23:30 | 42.55950 | 8.15624 | 27057 ft | 409 kts | 336° |
| 2026-04-23 23:30 | 42.58557 | 8.14041 | 27474 ft | 411 kts | 336° |
| 2026-04-23 23:31 | 42.61175 | 8.12451 | 27891 ft | 413 kts | 336° |
| 2026-04-23 23:31 | 42.63771 | 8.10877 | 28288 ft | 415 kts | 336° |
| 2026-04-23 23:31 | 42.66419 | 8.09270 | 28682 ft | 418 kts | 336° |
| 2026-04-23 23:31 | 42.69076 | 8.07653 | 29071 ft | 420 kts | 336° |
| 2026-04-23 23:32 | 42.71748 | 8.06024 | 29450 ft | 422 kts | 336° |
| 2026-04-23 23:32 | 42.74430 | 8.04389 | 29818 ft | 424 kts | 336° |
| 2026-04-23 23:32 | 42.77130 | 8.02743 | 30163 ft | 426 kts | 336° |
| 2026-04-23 23:32 | 42.79815 | 8.00983 | 30465 ft | 429 kts | 333° |
| 2026-04-23 23:33 | 42.82452 | 7.99068 | 30748 ft | 431 kts | 331° |
| 2026-04-23 23:33 | 42.85066 | 7.97042 | 31025 ft | 433 kts | 330° |
| 2026-04-23 23:33 | 42.87674 | 7.94964 | 31257 ft | 436 kts | 330° |
| 2026-04-23 23:33 | 42.90299 | 7.92874 | 31501 ft | 438 kts | 330° |
| 2026-04-23 23:34 | 42.92944 | 7.90797 | 31762 ft | 440 kts | 330° |
| 2026-04-23 23:34 | 42.95608 | 7.88744 | 32102 ft | 439 kts | 331° |
| 2026-04-23 23:34 | 42.98274 | 7.86714 | 32465 ft | 438 kts | 332° |
| 2026-04-23 23:34 | 43.00941 | 7.84695 | 32837 ft | 437 kts | 332° |
| 2026-04-23 23:35 | 43.03600 | 7.82685 | 33200 ft | 437 kts | 332° |
| 2026-04-23 23:35 | 43.06255 | 7.80672 | 33559 ft | 436 kts | 332° |
| 2026-04-23 23:35 | 43.08899 | 7.78661 | 33918 ft | 435 kts | 332° |
| 2026-04-23 23:35 | 43.11547 | 7.76629 | 34130 ft | 435 kts | 331° |
| 2026-04-23 23:36 | 43.14148 | 7.74616 | 34173 ft | 425 kts | 331° |
| 2026-04-23 23:36 | 43.19202 | 7.70674 | 34163 ft | 418 kts | 331° |
| 2026-04-23 23:37 | 43.24252 | 7.66746 | 34163 ft | 417 kts | 331° |
| 2026-04-23 23:37 | 43.29308 | 7.62824 | 34160 ft | 417 kts | 331° |
| 2026-04-23 23:38 | 43.34360 | 7.58897 | 34161 ft | 417 kts | 331° |
| 2026-04-23 23:38 | 43.39417 | 7.54974 | 34131 ft | 418 kts | 332° |
| 2026-04-23 23:39 | 43.44479 | 7.51039 | 34125 ft | 419 kts | 331° |
| 2026-04-23 23:39 | 43.49553 | 7.47080 | 34138 ft | 419 kts | 331° |
| 2026-04-23 23:40 | 43.54622 | 7.43103 | 34136 ft | 419 kts | 331° |
| 2026-04-23 23:40 | 43.59699 | 7.39125 | 34143 ft | 420 kts | 331° |
| 2026-04-23 23:41 | 43.63900 | 7.35756 | 34151 ft | 420 kts | 329° |
| 2026-04-23 23:41 | 43.69584 | 7.30587 | 34153 ft | 421 kts | 327° |
| 2026-04-23 23:42 | 43.74416 | 7.26012 | 34154 ft | 421 kts | 327° |
| 2026-04-23 23:42 | 43.78486 | 7.22221 | 34155 ft | 420 kts | 327° |
| 2026-04-23 23:43 | 43.83329 | 7.17768 | 34148 ft | 421 kts | 328° |
| 2026-04-23 23:43 | 43.88173 | 7.13314 | 34151 ft | 421 kts | 328° |
| 2026-04-23 23:44 | 43.93043 | 7.08816 | 34160 ft | 421 kts | 327° |
| 2026-04-23 23:44 | 43.97919 | 7.04309 | 34161 ft | 421 kts | 328° |
| 2026-04-23 23:45 | 44.02790 | 6.99801 | 34154 ft | 421 kts | 328° |
| 2026-04-23 23:45 | 44.07663 | 6.95282 | 34158 ft | 421 kts | 328° |
| 2026-04-23 23:46 | 44.12599 | 6.90901 | 34159 ft | 419 kts | 335° |
| 2026-04-23 23:46 | 44.18109 | 6.88485 | 34154 ft | 415 kts | 354° |
| 2026-04-23 23:47 | 44.23857 | 6.87614 | 34148 ft | 415 kts | 355° |
| 2026-04-23 23:47 | 44.29614 | 6.86739 | 34145 ft | 416 kts | 355° |
| 2026-04-23 23:48 | 44.35379 | 6.85869 | 34147 ft | 417 kts | 355° |
| 2026-04-23 23:48 | 44.41112 | 6.85005 | 34146 ft | 417 kts | 355° |
| 2026-04-23 23:49 | 44.49782 | 6.83678 | 34144 ft | 419 kts | 355° |
| 2026-04-23 23:49 | 44.55581 | 6.82794 | 34149 ft | 420 kts | 355° |
| 2026-04-23 23:50 | 44.61399 | 6.81907 | 34158 ft | 420 kts | 355° |
| 2026-04-23 23:50 | 44.67216 | 6.81021 | 34163 ft | 421 kts | 355° |
| 2026-04-23 23:51 | 44.73044 | 6.80125 | 34165 ft | 421 kts | 355° |
| 2026-04-23 23:51 | 44.78865 | 6.79227 | 34166 ft | 421 kts | 355° |
| 2026-04-23 23:52 | 44.84704 | 6.78557 | 34164 ft | 421 kts | 359° |
| 2026-04-23 23:52 | 44.90561 | 6.78254 | 34166 ft | 422 kts | 359° |
| 2026-04-23 23:53 | 44.93466 | 6.77656 | 33974 ft | 432 kts | 345° |
| 2026-04-23 23:53 | 44.96224 | 6.75954 | 32709 ft | 437 kts | 329° |
| 2026-04-23 23:53 | 44.98788 | 6.73641 | 31488 ft | 437 kts | 329° |
| 2026-04-23 23:53 | 45.01326 | 6.71327 | 30435 ft | 433 kts | 329° |
| 2026-04-23 23:54 | 45.03849 | 6.69038 | 29315 ft | 428 kts | 329° |
| 2026-04-23 23:54 | 45.06343 | 6.66794 | 28274 ft | 421 kts | 330° |
| 2026-04-23 23:54 | 45.08800 | 6.64603 | 27318 ft | 415 kts | 330° |
| 2026-04-23 23:54 | 45.11224 | 6.62451 | 26458 ft | 407 kts | 330° |
| 2026-04-23 23:55 | 45.13574 | 6.60363 | 26036 ft | 389 kts | 330° |
| 2026-04-23 23:55 | 45.15831 | 6.58352 | 25594 ft | 381 kts | 330° |
| 2026-04-23 23:55 | 45.18073 | 6.56356 | 25119 ft | 379 kts | 330° |
| 2026-04-23 23:55 | 45.20310 | 6.54367 | 24637 ft | 377 kts | 330° |
| 2026-04-23 23:56 | 45.22530 | 6.52391 | 24159 ft | 376 kts | 330° |
| 2026-04-23 23:56 | 45.24741 | 6.50414 | 23654 ft | 375 kts | 330° |
| 2026-04-23 23:56 | 45.26944 | 6.48443 | 23134 ft | 373 kts | 330° |
| 2026-04-23 23:56 | 45.29124 | 6.46490 | 22659 ft | 369 kts | 330° |
| 2026-04-23 23:57 | 45.31291 | 6.44546 | 22183 ft | 367 kts | 330° |
| 2026-04-23 23:57 | 45.33446 | 6.42616 | 21707 ft | 365 kts | 330° |
| 2026-04-23 23:57 | 45.35588 | 6.40695 | 21251 ft | 363 kts | 330° |
| 2026-04-23 23:57 | 45.37697 | 6.38802 | 20789 ft | 362 kts | 329° |
| 2026-04-23 23:58 | 45.39820 | 6.36890 | 20335 ft | 360 kts | 329° |
| 2026-04-23 23:58 | 45.41928 | 6.34988 | 19877 ft | 358 kts | 329° |
| 2026-04-23 23:58 | 45.44028 | 6.33092 | 19420 ft | 357 kts | 329° |
| 2026-04-23 23:58 | 45.46119 | 6.31205 | 18979 ft | 354 kts | 329° |
| 2026-04-23 23:59 | 45.48192 | 6.29333 | 18534 ft | 352 kts | 329° |
| 2026-04-23 23:59 | 45.50260 | 6.27464 | 18048 ft | 351 kts | 329° |
| 2026-04-23 23:59 | 45.52316 | 6.25605 | 17612 ft | 349 kts | 329° |
| 2026-04-23 23:59 | 45.54353 | 6.23760 | 17193 ft | 346 kts | 329° |
| 2026-04-24 00:00 | 45.56377 | 6.21924 | 16763 ft | 343 kts | 329° |
| 2026-04-24 00:00 | 45.58389 | 6.20097 | 16343 ft | 342 kts | 329° |
| 2026-04-24 00:00 | 45.60397 | 6.18270 | 15921 ft | 340 kts | 329° |
| 2026-04-24 00:00 | 45.62389 | 6.16460 | 15511 ft | 338 kts | 329° |
| 2026-04-24 00:01 | 45.64346 | 6.14681 | 15110 ft | 337 kts | 329° |
| 2026-04-24 00:01 | 45.66320 | 6.12886 | 14697 ft | 336 kts | 329° |
| 2026-04-24 00:01 | 45.68290 | 6.11093 | 14284 ft | 335 kts | 329° |
| 2026-04-24 00:01 | 45.70255 | 6.09300 | 13855 ft | 334 kts | 329° |
| 2026-04-24 00:02 | 45.72210 | 6.07514 | 13427 ft | 332 kts | 328° |
| 2026-04-24 00:02 | 45.74149 | 6.05741 | 13012 ft | 329 kts | 328° |
| 2026-04-24 00:02 | 45.76071 | 6.03979 | 12599 ft | 327 kts | 328° |
| 2026-04-24 00:02 | 45.77976 | 6.02233 | 12195 ft | 324 kts | 328° |
| 2026-04-24 00:03 | 45.79870 | 6.00498 | 11767 ft | 322 kts | 328° |
| 2026-04-24 00:03 | 45.81731 | 5.98795 | 11603 ft | 311 kts | 328° |
| 2026-04-24 00:03 | 45.83530 | 5.97146 | 11378 ft | 304 kts | 329° |
| 2026-04-24 00:03 | 45.85300 | 5.95524 | 11052 ft | 301 kts | 328° |
| 2026-04-24 00:04 | 45.87054 | 5.93911 | 10697 ft | 297 kts | 328° |
| 2026-04-24 00:04 | 45.88781 | 5.92318 | 10071 ft | 293 kts | 328° |
| 2026-04-24 00:04 | 45.90472 | 5.90760 | 9353 ft | 291 kts | 328° |
| 2026-04-24 00:04 | 45.92164 | 5.89199 | 8697 ft | 287 kts | 328° |
| 2026-04-24 00:05 | 45.93805 | 5.87682 | 8274 ft | 274 kts | 328° |
| 2026-04-24 00:05 | 45.95376 | 5.86229 | 7864 ft | 262 kts | 328° |
| 2026-04-24 00:05 | 45.96876 | 5.84846 | 7491 ft | 251 kts | 328° |
| 2026-04-24 00:05 | 45.98301 | 5.83534 | 7290 ft | 233 kts | 328° |
| 2026-04-24 00:06 | 45.99641 | 5.82299 | 7221 ft | 228 kts | 328° |
| 2026-04-24 00:06 | 46.01045 | 5.81265 | 6988 ft | 225 kts | 346° |
| 2026-04-24 00:06 | 46.02587 | 5.81177 | 6822 ft | 223 kts | 12° |
| 2026-04-24 00:06 | 46.03993 | 5.82065 | 6609 ft | 222 kts | 38° |
| 2026-04-24 00:07 | 46.05103 | 5.83599 | 6337 ft | 221 kts | 45° |
| 2026-04-24 00:07 | 46.06182 | 5.85176 | 6039 ft | 221 kts | 45° |
| 2026-04-24 00:07 | 46.07259 | 5.86742 | 5734 ft | 220 kts | 45° |
| 2026-04-24 00:07 | 46.08332 | 5.88302 | 5457 ft | 219 kts | 46° |
| 2026-04-24 00:08 | 46.09400 | 5.89856 | 5165 ft | 218 kts | 46° |
| 2026-04-24 00:08 | 46.10465 | 5.91405 | 4882 ft | 216 kts | 46° |
| 2026-04-24 00:08 | 46.11526 | 5.92950 | 4583 ft | 217 kts | 46° |
| 2026-04-24 00:08 | 46.12582 | 5.94488 | 4292 ft | 215 kts | 46° |
| 2026-04-24 00:09 | 46.13634 | 5.96022 | 4003 ft | 214 kts | 46° |
| 2026-04-24 00:09 | 46.14684 | 5.97552 | 3721 ft | 214 kts | 46° |
| 2026-04-24 00:09 | 46.15687 | 5.99016 | 3436 ft | 199 kts | 45° |
| 2026-04-24 00:09 | 46.16635 | 6.00400 | 3182 ft | 190 kts | 45° |
| 2026-04-24 00:10 | 46.17551 | 6.01739 | 2947 ft | 183 kts | 45° |
| 2026-04-24 00:10 | 46.18414 | 6.03000 | 2697 ft | 171 kts | 45° |
| 2026-04-24 00:10 | 46.19230 | 6.04192 | 2433 ft | 162 kts | 45° |
| 2026-04-24 00:10 | 46.19998 | 6.05315 | 2205 ft | 152 kts | 45° |
| 2026-04-24 00:11 | 46.20724 | 6.06380 | 2006 ft | 146 kts | 45° |
| 2026-04-24 00:11 | 46.21429 | 6.07420 | 1796 ft | 144 kts | 45° |
| 2026-04-24 00:11 | 46.22130 | 6.08440 | 1632 ft | 143 kts | 45° |
| 2026-04-24 00:11 | 46.22824 | 6.09456 | 1454 ft | 142 kts | 45° |
| 2026-04-24 00:12 | 46.23473 | 6.10404 | 1385 ft | 114 kts | 45° |
| 2026-04-24 00:12 | 46.23906 | 6.11039 | 1379 ft | 64 kts | 46° |
| 2026-04-24 00:12 | 46.24149 | 6.11396 | 1374 ft | 44 kts | 45° |
| 2026-04-24 00:12 | 46.24295 | 6.11663 | 1372 ft | 31 kts | 64° |
| 2026-04-24 00:13 | 46.24340 | 6.11868 | 1366 ft | 13 kts | 77° |
| 2026-04-24 00:13 | 46.24291 | 6.11932 | 1363 ft | 12 kts | 206° |
| 2026-04-24 00:13 | 46.24231 | 6.11851 | 1362 ft | 11 kts | 225° |
| 2026-04-24 00:13 | 46.24174 | 6.11768 | 1364 ft | 17 kts | 225° |
| 2026-04-24 00:14 | 46.24060 | 6.11600 | 1369 ft | 27 kts | 226° |
| 2026-04-24 00:14 | 46.23929 | 6.11409 | 1375 ft | 27 kts | 225° |
| 2026-04-24 00:14 | 46.23800 | 6.11218 | 1379 ft | 27 kts | 226° |
| 2026-04-24 00:14 | 46.23674 | 6.11036 | 1390 ft | 24 kts | 225° |
| 2026-04-24 00:15 | 46.23552 | 6.10856 | 1389 ft | 26 kts | 226° |
| 2026-04-24 00:15 | 46.23426 | 6.10679 | 1398 ft | 22 kts | 221° |
| 2026-04-24 00:15 | 46.23355 | 6.10580 | 1392 ft | 11 kts | 225° |
| 2026-04-24 00:15 | 46.23307 | 6.10514 | 1398 ft | 7 kts | 207° |
| 2026-04-24 00:16 | 46.23269 | 6.10541 | 1396 ft | 6 kts | 134° |
| 2026-04-24 00:16 | 46.23245 | 6.10579 | 1393 ft | 5 kts | 124° |
| 2026-04-24 00:16 | 46.23243 | 6.10619 | 1393 ft | 4 kts | 88° |
| 2026-04-24 00:16 | 46.23243 | 6.10650 | 1393 ft | 3 kts | 90° |
| 2026-04-24 00:17 | 46.23243 | 6.10674 | 1393 ft | 2 kts | 91° |
| 2026-04-24 00:17 | 46.23243 | 6.10688 | 1393 ft | 0 kts | 91° |
| 2026-04-24 00:17 | 46.23243 | 6.10689 | 1393 ft | 0 kts | 91° |